LEBA

Córdoba Airport

Airport
ICAO code
LEBA
IATA Code
ODB
Summary
ICAO Region
EUR
ICAO Territory
Location

Fontanar de Quintos, Andalucia

Serving
Cordoba
Elevation
297 ft
Coordinates
37° 50' 31" N , 4° 50' 56" W
KCC
Metar
Observation
LEBA 050130Z AUTO 08004KT CAVOK 11/09 Q1011
Station
Cordoba / Aeropuerto
Date/Time
2022-12-05 01:30:00
Wind direction
80°
Wind speed
04 kts
Lowest cloud amount
clouds and visibility OK
Temperature
11°C
Dew point
9°C
Humidity
87%
QNH
1011 hPa
Weather condition
n/a

Climatology

Warm mediterranean climate (Köppen climate classification Csa).

Runways

Designator Length Width Surface Rops
3/21 1380 45 ASP No/No

Airport map

Aerial View

SKYbrary Partners:

Safety knowledge contributed by: